createdAt,value
2019-01-18T00:01:19.431Z,63.76
2019-01-18T00:03:51.042Z,62.75
2019-01-18T00:06:22.606Z,63.42
2019-01-18T00:08:53.831Z,63.34
2019-01-18T00:11:25.026Z,63.37
2019-01-18T00:13:56.246Z,63.22
2019-01-18T00:16:27.505Z,63.34
2019-01-18T00:18:58.740Z,63.43
2019-01-18T00:21:30.019Z,63.36
2019-01-18T00:24:01.188Z,63.44
2019-01-18T00:26:32.410Z,63.43
2019-01-18T00:29:03.636Z,63.38
2019-01-18T00:31:34.850Z,63.42
2019-01-18T00:34:06.047Z,63.33
2019-01-18T00:36:37.384Z,63.24
2019-01-18T00:39:09.300Z,63.07
2019-01-18T00:41:40.476Z,63.26
2019-01-18T00:44:11.716Z,63.32
2019-01-18T00:46:42.910Z,63.24
2019-01-18T00:49:14.161Z,63.32
2019-01-18T00:51:45.396Z,63.27
2019-01-18T00:54:16.587Z,63.28
2019-01-18T00:56:47.843Z,63.36
2019-01-18T00:59:19.025Z,63.83
2019-01-18T01:01:50.215Z,63.97
2019-01-18T01:04:21.522Z,64.19
2019-01-18T01:06:52.738Z,64.37
2019-01-18T01:09:23.916Z,64.65
2019-01-18T01:11:55.147Z,64.78
2019-01-18T01:14:26.346Z,64.95
2019-01-18T01:16:57.534Z,65.04
2019-01-18T01:19:28.784Z,64.99
2019-01-18T01:22:00.190Z,65.45
2019-01-18T01:24:31.417Z,65.20
2019-01-18T01:27:02.575Z,65.54
2019-01-18T01:29:33.746Z,65.44
2019-01-18T01:32:05.242Z,65.47
2019-01-18T01:34:36.435Z,65.46
2019-01-18T01:37:07.631Z,65.35
2019-01-18T01:39:38.807Z,65.53
2019-01-18T01:42:10.026Z,65.50
2019-01-18T01:44:41.292Z,65.46
2019-01-18T01:47:12.535Z,65.39
2019-01-18T01:49:43.734Z,65.51
2019-01-18T01:52:14.866Z,65.37
2019-01-18T01:54:46.082Z,65.38
2019-01-18T01:57:17.257Z,65.43
2019-01-18T01:59:49.987Z,65.28
2019-01-18T02:02:21.379Z,65.26
2019-01-18T02:04:52.623Z,65.35
2019-01-18T02:07:23.791Z,65.28
2019-01-18T02:09:56.124Z,65.41
2019-01-18T02:12:27.347Z,65.34
2019-01-18T02:14:58.524Z,65.37
2019-01-18T02:17:29.807Z,65.48
2019-01-18T02:20:01.073Z,65.46
2019-01-18T02:22:32.350Z,65.43
2019-01-18T02:25:03.488Z,65.50
2019-01-18T02:27:34.835Z,65.62
2019-01-18T02:30:08.379Z,65.70
2019-01-18T02:32:39.681Z,65.67
2019-01-18T02:35:10.901Z,65.84
2019-01-18T02:37:42.073Z,65.79
2019-01-18T02:40:13.636Z,65.95
2019-01-18T02:42:45.013Z,65.92
2019-01-18T02:45:18.246Z,65.97
2019-01-18T02:47:49.451Z,65.99
2019-01-18T02:50:21.413Z,66.04
2019-01-18T02:52:52.669Z,65.90
2019-01-18T02:55:28.812Z,66.02
2019-01-18T02:57:56.759Z,65.99
2019-01-18T03:00:28.017Z,66.07
2019-01-18T03:02:59.202Z,65.98
2019-01-18T03:05:30.386Z,65.93
2019-01-18T03:08:01.579Z,66.01
2019-01-18T03:10:32.902Z,65.96
2019-01-18T03:13:04.080Z,65.85
2019-01-18T03:15:35.296Z,65.84
2019-01-18T03:18:06.457Z,65.78
2019-01-18T03:20:37.649Z,65.78
2019-01-18T03:23:08.916Z,65.82
2019-01-18T03:25:40.178Z,65.79
2019-01-18T03:28:11.401Z,65.68
2019-01-18T03:30:42.667Z,65.21
2019-01-18T03:33:13.909Z,64.95
2019-01-18T03:35:45.049Z,65.02
2019-01-18T03:38:16.265Z,64.96
2019-01-18T03:40:47.439Z,64.93
2019-01-18T03:43:18.635Z,64.89
2019-01-18T03:45:49.815Z,64.80
2019-01-18T03:48:20.967Z,64.67
2019-01-18T03:50:52.282Z,64.60
2019-01-18T03:53:23.487Z,64.63
2019-01-18T03:55:54.718Z,64.56
2019-01-18T03:58:25.861Z,64.49
2019-01-18T04:00:57.107Z,64.43
2019-01-18T04:03:28.316Z,64.16
2019-01-18T04:05:59.520Z,63.93
2019-01-18T04:08:30.707Z,63.75
2019-01-18T04:11:01.940Z,63.78
2019-01-18T04:13:33.124Z,63.63
2019-01-18T04:16:04.329Z,63.50
2019-01-18T04:18:35.603Z,63.47
2019-01-18T04:21:06.813Z,63.71
2019-01-18T04:23:38.016Z,63.67
2019-01-18T04:26:09.184Z,63.60
2019-01-18T04:28:40.344Z,63.73
2019-01-18T04:31:11.507Z,63.67
2019-01-18T04:33:42.734Z,63.80
2019-01-18T04:36:13.903Z,63.87
2019-01-18T04:38:46.151Z,63.78
2019-01-18T04:41:18.458Z,63.77
2019-01-18T04:43:49.608Z,63.91
2019-01-18T04:46:20.833Z,63.66
2019-01-18T04:48:52.070Z,63.52
2019-01-18T04:51:23.244Z,63.70
2019-01-18T04:53:54.417Z,63.73
2019-01-18T04:56:25.677Z,63.71
2019-01-18T04:58:56.837Z,63.81
2019-01-18T05:01:28.234Z,63.79
2019-01-18T05:03:59.432Z,63.90
2019-01-18T05:06:30.641Z,63.85
2019-01-18T05:09:01.821Z,63.84
2019-01-18T05:11:34.187Z,63.81
2019-01-18T05:14:05.510Z,63.81
2019-01-18T05:16:36.701Z,63.79
2019-01-18T05:19:07.936Z,63.86
2019-01-18T05:21:39.138Z,63.81
2019-01-18T05:24:10.330Z,63.93
2019-01-18T05:26:41.585Z,63.96
2019-01-18T05:29:13.852Z,63.94
2019-01-18T05:31:45.001Z,63.93
2019-01-18T05:34:16.194Z,63.98
2019-01-18T05:36:47.363Z,63.95
2019-01-18T05:39:18.560Z,63.98
2019-01-18T05:41:49.819Z,63.94
2019-01-18T05:44:21.006Z,63.92
2019-01-18T05:46:52.252Z,64.00
2019-01-18T05:49:23.428Z,63.94
2019-01-18T05:51:54.675Z,63.94
2019-01-18T05:54:25.923Z,64.02
2019-01-18T05:56:57.140Z,64.01
2019-01-18T05:59:28.371Z,63.95
2019-01-18T06:01:59.562Z,64.01
2019-01-18T06:04:31.116Z,64.02
2019-01-18T06:07:02.249Z,64.00
2019-01-18T06:09:33.419Z,64.03
2019-01-18T06:12:04.571Z,64.07
2019-01-18T06:14:35.805Z,64.01
2019-01-18T06:17:06.957Z,63.96
2019-01-18T06:19:38.284Z,63.80
2019-01-18T06:22:09.553Z,63.89
2019-01-18T06:24:40.672Z,63.85
2019-01-18T06:27:11.904Z,63.87
2019-01-18T06:29:43.108Z,63.87
2019-01-18T06:32:14.298Z,63.82
2019-01-18T06:34:45.527Z,63.79
2019-01-18T06:37:16.759Z,63.73
2019-01-18T06:39:47.962Z,63.78
2019-01-18T06:42:19.146Z,63.82
2019-01-18T06:44:50.327Z,63.79
2019-01-18T06:47:21.500Z,63.83
2019-01-18T06:49:52.637Z,63.72
2019-01-18T06:52:23.790Z,63.80
2019-01-18T06:54:55.033Z,63.76
2019-01-18T06:57:26.182Z,63.74
2019-01-18T06:59:57.343Z,63.75
2019-01-18T07:02:28.567Z,63.85
2019-01-18T07:04:59.763Z,63.80
2019-01-18T07:07:30.929Z,63.88
2019-01-18T07:10:02.160Z,63.94
2019-01-18T07:12:35.647Z,64.00
2019-01-18T07:15:08.348Z,64.04
2019-01-18T07:17:39.526Z,64.09
2019-01-18T07:20:12.649Z,64.13
2019-01-18T07:22:43.788Z,64.13
2019-01-18T07:25:23.060Z,64.14
2019-01-18T07:27:54.180Z,64.17
2019-01-18T07:30:39.838Z,64.20
2019-01-18T07:33:12.711Z,64.23
2019-01-18T07:35:43.991Z,64.26
2019-01-18T07:38:15.202Z,64.28
2019-01-18T07:40:46.359Z,64.31
2019-01-18T07:43:17.655Z,64.32
2019-01-18T07:45:48.802Z,64.33
2019-01-18T07:48:20.030Z,64.34
2019-01-18T07:50:51.206Z,64.37
2019-01-18T07:53:22.401Z,64.33
2019-01-18T07:55:53.549Z,64.31
2019-01-18T07:58:24.734Z,64.32
2019-01-18T08:00:55.945Z,64.30
2019-01-18T08:03:27.099Z,64.31
2019-01-18T08:05:58.330Z,64.24
2019-01-18T08:08:29.495Z,64.21
2019-01-18T08:11:00.653Z,64.21
2019-01-18T08:13:31.860Z,64.22
2019-01-18T08:16:03.086Z,64.15
2019-01-18T08:18:34.290Z,64.02
2019-01-18T08:21:05.525Z,64.04
2019-01-18T08:23:36.683Z,64.06
2019-01-18T08:26:07.909Z,64.07
2019-01-18T08:28:39.184Z,64.05
2019-01-18T08:31:10.441Z,64.00
2019-01-18T08:33:41.608Z,64.07
2019-01-18T08:36:12.754Z,64.09
2019-01-18T08:38:44.004Z,64.04
2019-01-18T08:41:15.210Z,64.00
2019-01-18T08:43:46.441Z,63.94
2019-01-18T08:46:18.709Z,63.69
2019-01-18T08:48:49.977Z,63.56
2019-01-18T08:51:21.166Z,63.65
2019-01-18T08:53:52.337Z,63.68
2019-01-18T08:56:23.596Z,63.87
2019-01-18T08:58:54.755Z,64.01
2019-01-18T09:01:25.944Z,64.00
2019-01-18T09:03:57.161Z,63.84
2019-01-18T09:06:28.435Z,63.75
2019-01-18T09:08:59.615Z,63.75
2019-01-18T09:11:31.034Z,63.84
2019-01-18T09:14:02.132Z,63.77
2019-01-18T09:16:33.391Z,63.83
2019-01-18T09:19:04.591Z,63.96
2019-01-18T09:21:35.772Z,63.92
2019-01-18T09:24:06.974Z,63.94
2019-01-18T09:26:38.276Z,64.07
2019-01-18T09:29:10.302Z,64.21
2019-01-18T09:31:42.636Z,64.16
2019-01-18T09:34:14.066Z,64.07
2019-01-18T09:36:45.271Z,64.07
2019-01-18T09:39:16.489Z,63.91
2019-01-18T09:41:47.671Z,63.91
2019-01-18T09:44:18.864Z,63.82
2019-01-18T09:46:50.078Z,63.73
2019-01-18T09:49:21.236Z,63.63
2019-01-18T09:51:52.358Z,63.55
2019-01-18T09:54:23.493Z,63.48
2019-01-18T09:56:54.713Z,63.39
2019-01-18T09:59:25.890Z,63.32
2019-01-18T10:01:57.074Z,63.28
2019-01-18T10:04:28.278Z,63.42
2019-01-18T10:06:59.465Z,63.06
2019-01-18T10:09:30.694Z,63.03
2019-01-18T10:12:01.851Z,62.93
2019-01-18T10:14:33.173Z,63.12
2019-01-18T10:17:04.364Z,63.15
2019-01-18T10:19:35.518Z,63.19
2019-01-18T10:22:06.820Z,62.99
2019-01-18T10:24:38.008Z,62.75
2019-01-18T10:27:09.179Z,62.75
2019-01-18T10:29:40.315Z,62.73
2019-01-18T10:32:11.488Z,62.34
2019-01-18T10:34:42.629Z,62.35
2019-01-18T10:37:13.826Z,62.37
2019-01-18T10:39:45.120Z,62.53
2019-01-18T10:42:16.329Z,62.63
2019-01-18T10:44:47.514Z,62.50
2019-01-18T10:47:18.714Z,62.36
2019-01-18T10:49:49.894Z,62.28
2019-01-18T10:52:21.064Z,62.32
2019-01-18T10:54:52.294Z,62.19
2019-01-18T10:57:23.467Z,61.76
2019-01-18T10:59:54.658Z,61.70
2019-01-18T11:02:25.832Z,61.56
2019-01-18T11:04:56.978Z,61.83
2019-01-18T11:07:28.176Z,61.62
2019-01-18T11:09:59.360Z,61.73
2019-01-18T11:12:30.522Z,61.52
2019-01-18T11:15:01.660Z,61.49
2019-01-18T11:17:32.811Z,61.63
2019-01-18T11:20:04.627Z,61.48
2019-01-18T11:22:35.776Z,61.82
2019-01-18T11:25:07.430Z,61.90
2019-01-18T11:27:38.565Z,62.06
2019-01-18T11:30:13.302Z,61.66
2019-01-18T11:32:44.688Z,61.74
2019-01-18T11:35:16.732Z,61.74
2019-01-18T11:37:48.873Z,61.38
2019-01-18T11:40:21.431Z,61.17
2019-01-18T11:42:52.596Z,61.41
2019-01-18T11:45:23.719Z,61.09
2019-01-18T11:47:54.960Z,60.28
2019-01-18T11:50:26.485Z,60.50
2019-01-18T11:52:57.629Z,60.46
2019-01-18T11:55:28.812Z,60.38
2019-01-18T11:57:59.984Z,59.77
2019-01-18T12:00:37.645Z,60.01
2019-01-18T12:03:10.713Z,60.30
2019-01-18T12:05:42.188Z,60.20
2019-01-18T12:08:13.750Z,59.59
2019-01-18T12:10:45.068Z,59.59
2019-01-18T12:13:16.345Z,59.54
2019-01-18T12:15:47.556Z,59.69
2019-01-18T12:18:18.841Z,59.75
2019-01-18T12:20:50.399Z,59.92
2019-01-18T12:23:21.614Z,60.07
2019-01-18T12:25:52.865Z,59.95
2019-01-18T12:28:24.091Z,59.94
2019-01-18T12:30:55.457Z,59.54
2019-01-18T12:33:26.658Z,59.88
2019-01-18T12:35:58.034Z,59.95
2019-01-18T12:38:29.228Z,59.49
2019-01-18T12:41:00.433Z,59.60
2019-01-18T12:43:31.681Z,59.53
2019-01-18T12:46:02.920Z,59.55
2019-01-18T12:48:34.212Z,59.10
2019-01-18T12:51:05.565Z,59.37
2019-01-18T12:53:36.864Z,59.37
2019-01-18T12:56:08.194Z,59.18
2019-01-18T12:58:39.517Z,58.84
2019-01-18T13:01:10.705Z,59.04
2019-01-18T13:03:42.046Z,59.05
2019-01-18T13:06:13.304Z,59.40
2019-01-18T13:08:44.517Z,59.40
2019-01-18T13:11:15.770Z,59.07
2019-01-18T13:13:46.935Z,58.71
2019-01-18T13:16:27.342Z,59.32
2019-01-18T13:19:07.527Z,59.32
2019-01-18T13:21:38.702Z,58.96
2019-01-18T13:24:09.948Z,59.01
2019-01-18T13:26:41.300Z,59.00
2019-01-18T13:29:12.559Z,58.45
2019-01-18T13:31:43.726Z,59.05
2019-01-18T13:34:15.012Z,58.82
2019-01-18T13:36:46.254Z,58.68
2019-01-18T13:39:17.434Z,58.68
2019-01-18T13:41:48.681Z,58.80
2019-01-18T13:44:19.892Z,58.90
2019-01-18T13:46:51.075Z,58.83
2019-01-18T13:49:22.324Z,58.83
2019-01-18T13:51:53.504Z,58.87
2019-01-18T13:54:24.687Z,58.64
2019-01-18T13:56:55.919Z,58.62
2019-01-18T13:59:27.080Z,59.15
2019-01-18T14:01:58.378Z,58.57
2019-01-18T14:04:29.544Z,58.63
2019-01-18T14:07:00.706Z,58.83
2019-01-18T14:09:31.935Z,59.20
2019-01-18T14:12:03.091Z,59.18
2019-01-18T14:14:34.516Z,58.54
2019-01-18T14:17:05.691Z,58.76
2019-01-18T14:19:36.913Z,58.20
2019-01-18T14:22:08.178Z,58.31
2019-01-18T14:24:39.379Z,58.56
2019-01-18T14:27:10.629Z,59.00
2019-01-18T14:29:41.789Z,58.17
2019-01-18T14:32:13.145Z,57.86
2019-01-18T14:34:44.368Z,57.78
2019-01-18T14:37:15.530Z,57.59
2019-01-18T14:39:46.910Z,57.06
2019-01-18T14:42:18.178Z,57.09
2019-01-18T14:44:49.621Z,57.57
2019-01-18T14:47:20.763Z,58.03
2019-01-18T14:49:52.069Z,57.90
2019-01-18T14:52:23.195Z,58.39
2019-01-18T14:54:54.443Z,58.47
2019-01-18T14:57:25.669Z,58.79
2019-01-18T14:59:56.912Z,58.87
2019-01-18T15:02:28.212Z,58.86
2019-01-18T15:04:59.369Z,58.93
2019-01-18T15:07:30.609Z,59.01
2019-01-18T15:10:05.160Z,59.15
2019-01-18T15:12:34.826Z,59.14
2019-01-18T15:15:07.211Z,59.27
2019-01-18T15:17:38.364Z,59.26
2019-01-18T15:20:37.615Z,59.38
2019-01-18T15:23:09.016Z,59.49
2019-01-18T15:25:40.337Z,59.54
2019-01-18T15:28:11.571Z,59.67
2019-01-18T15:30:42.869Z,59.67
2019-01-18T15:33:14.195Z,59.64
2019-01-18T15:35:45.355Z,59.82
2019-01-18T15:38:16.614Z,59.78
2019-01-18T15:40:49.535Z,59.97
2019-01-18T15:43:23.044Z,59.97
2019-01-18T15:45:54.246Z,59.95
2019-01-18T15:48:25.485Z,60.01
2019-01-18T15:50:56.752Z,59.99
2019-01-18T15:53:30.399Z,60.09
2019-01-18T15:56:01.670Z,60.27
2019-01-18T15:58:32.907Z,60.30
2019-01-18T16:01:04.117Z,60.34
2019-01-18T16:03:35.283Z,60.27
2019-01-18T16:06:06.488Z,60.18
2019-01-18T16:08:37.719Z,60.18
2019-01-18T16:11:08.921Z,60.29
2019-01-18T16:13:40.106Z,60.15
2019-01-18T16:16:16.686Z,60.24
2019-01-18T16:18:47.863Z,60.25
2019-01-18T16:21:19.140Z,60.22
2019-01-18T16:23:50.344Z,60.12
2019-01-18T16:26:21.529Z,60.09
2019-01-18T16:28:52.709Z,60.08
2019-01-18T16:31:23.856Z,60.20
2019-01-18T16:33:55.066Z,59.96
2019-01-18T16:36:26.253Z,59.96
2019-01-18T16:38:57.518Z,60.22
2019-01-18T16:41:32.720Z,60.18
2019-01-18T16:44:04.042Z,60.18
2019-01-18T16:46:35.241Z,60.03
2019-01-18T16:49:06.402Z,60.10
2019-01-18T16:51:37.587Z,60.02
2019-01-18T16:54:08.863Z,59.94
2019-01-18T16:56:40.090Z,59.98
2019-01-18T16:59:11.364Z,59.90
2019-01-18T17:01:42.552Z,60.04
2019-01-18T17:04:13.721Z,60.04
2019-01-18T17:06:44.978Z,59.93
2019-01-18T17:09:16.252Z,59.93
2019-01-18T17:11:47.413Z,59.95
2019-01-18T17:14:18.723Z,59.91
2019-01-18T17:16:49.904Z,59.97
2019-01-18T17:19:22.150Z,59.95
2019-01-18T17:21:53.338Z,59.94
2019-01-18T17:24:24.573Z,60.05
2019-01-18T17:26:55.736Z,60.09
2019-01-18T17:29:26.982Z,60.11
2019-01-18T17:31:58.173Z,60.05
2019-01-18T17:34:29.353Z,60.05
2019-01-18T17:37:11.159Z,60.05
2019-01-18T17:40:18.606Z,59.98
2019-01-18T17:43:16.300Z,59.99
2019-01-18T17:46:43.478Z,59.99
2019-01-18T17:50:16.900Z,60.09
2019-01-18T17:53:15.647Z,59.94
2019-01-18T17:56:16.097Z,59.83
2019-01-18T17:59:17.154Z,59.94
2019-01-18T18:02:27.799Z,59.95
2019-01-18T18:05:27.091Z,60.05
2019-01-18T18:08:34.274Z,60.06
2019-01-18T18:11:33.194Z,60.14
2019-01-18T18:14:30.820Z,60.22
2019-01-18T18:17:34.343Z,60.18
2019-01-18T18:20:49.753Z,60.17
2019-01-18T18:24:13.877Z,60.26
2019-01-18T18:27:40.380Z,60.40
2019-01-18T18:30:42.107Z,60.52
2019-01-18T18:33:25.139Z,60.50
2019-01-18T18:36:31.445Z,60.57
2019-01-18T18:39:59.072Z,60.67
2019-01-18T18:43:14.542Z,60.68
2019-01-18T18:46:11.227Z,60.65
2019-01-18T18:48:52.624Z,60.67
2019-01-18T18:52:10.245Z,60.78
2019-01-18T18:55:39.265Z,60.84
2019-01-18T18:59:10.947Z,60.82
2019-01-18T19:02:08.419Z,60.74
2019-01-18T19:05:19.587Z,60.79
2019-01-18T19:09:05.378Z,60.86
2019-01-18T19:12:09.977Z,60.82
2019-01-18T19:15:08.259Z,60.78
2019-01-18T19:18:07.833Z,60.77
2019-01-18T19:21:19.102Z,60.83
2019-01-18T19:23:56.190Z,60.89
2019-01-18T19:27:10.998Z,60.88
2019-01-18T19:30:26.170Z,60.91
2019-01-18T19:33:10.187Z,60.96
2019-01-18T19:36:40.536Z,61.02
2019-01-18T19:39:37.722Z,61.05
2019-01-18T19:42:36.534Z,61.14
2019-01-18T19:45:45.823Z,61.18
2019-01-18T19:48:33.003Z,61.20
2019-01-18T19:51:48.563Z,61.26
2019-01-18T19:54:50.720Z,61.30
2019-01-18T19:57:59.132Z,61.34
2019-01-18T20:01:11.101Z,61.42
2019-01-18T20:04:32.810Z,61.42
2019-01-18T20:07:47.753Z,61.42
2019-01-18T20:10:57.223Z,61.44
2019-01-18T20:14:00.661Z,61.43
2019-01-18T20:16:53.834Z,61.35
2019-01-18T20:19:56.101Z,61.28
2019-01-18T20:23:08.361Z,61.23
2019-01-18T20:26:23.581Z,61.21
2019-01-18T20:29:34.974Z,61.20
2019-01-18T20:32:42.889Z,61.23
2019-01-18T20:35:57.438Z,61.22
2019-01-18T20:38:54.749Z,61.25
2019-01-18T20:42:28.542Z,61.29
2019-01-18T20:45:41.573Z,61.27
2019-01-18T20:48:45.665Z,61.30
2019-01-18T20:51:56.105Z,61.31
2019-01-18T20:54:50.539Z,61.26
2019-01-18T20:57:32.790Z,61.23
2019-01-18T21:00:35.465Z,61.20
2019-01-18T21:03:29.530Z,61.18
2019-01-18T21:06:34.543Z,61.09
2019-01-18T21:09:49.093Z,61.10
2019-01-18T21:12:57.235Z,61.11
2019-01-18T21:15:57.632Z,61.04
2019-01-18T21:19:10.289Z,60.89
2019-01-18T21:22:30.780Z,60.90
2019-01-18T21:25:50.983Z,60.97
2019-01-18T21:28:59.574Z,60.99
2019-01-18T21:32:04.976Z,60.99
2019-01-18T21:35:29.401Z,60.95
2019-01-18T21:38:43.261Z,60.92
2019-01-18T21:41:35.449Z,60.83
2019-01-18T21:44:42.190Z,60.82
2019-01-18T21:47:56.878Z,60.80
2019-01-18T21:51:12.656Z,60.78
2019-01-18T21:53:48.731Z,60.80
2019-01-18T21:57:19.329Z,60.83
2019-01-18T22:00:21.895Z,60.88
2019-01-18T22:03:24.778Z,60.86
2019-01-18T22:06:26.201Z,60.81
2019-01-18T22:09:14.572Z,60.96
2019-01-18T22:12:31.788Z,60.98
2019-01-18T22:15:55.677Z,61.04
2019-01-18T22:18:44.204Z,61.00
2019-01-18T22:21:51.049Z,60.99
2019-01-18T22:24:56.345Z,60.97
2019-01-18T22:28:00.648Z,60.85
2019-01-18T22:31:06.380Z,60.81
2019-01-18T22:33:52.599Z,60.84
2019-01-18T22:36:57.908Z,60.76
2019-01-18T22:40:05.879Z,60.72
2019-01-18T22:43:35.807Z,60.72
2019-01-18T22:47:02.716Z,60.71
2019-01-18T22:50:01.435Z,60.66
2019-01-18T22:53:03.862Z,60.67
2019-01-18T22:56:00.045Z,60.72
2019-01-18T22:59:14.560Z,60.79
2019-01-18T23:02:19.316Z,60.84
2019-01-18T23:05:27.838Z,60.83
2019-01-18T23:08:32.132Z,60.82
2019-01-18T23:11:41.674Z,60.79
2019-01-18T23:14:48.984Z,60.39
2019-01-18T23:17:59.965Z,60.39
2019-01-18T23:21:09.827Z,60.75
2019-01-18T23:23:54.157Z,60.80
2019-01-18T23:26:50.630Z,60.74
2019-01-18T23:29:52.494Z,60.75
2019-01-18T23:33:00.518Z,60.76
2019-01-18T23:36:04.899Z,60.83
2019-01-18T23:39:20.475Z,60.87
2019-01-18T23:42:52.008Z,60.88
2019-01-18T23:45:52.431Z,60.88
2019-01-18T23:49:14.188Z,60.88
2019-01-18T23:52:19.441Z,60.54
2019-01-18T23:55:06.257Z,60.89
2019-01-18T23:58:32.725Z,60.89
